Map

Track Data

SID SEASON NUMBER BASIN SUBBASIN NAME ISO_TIME NATURE LAT LON WMO_WIND WMO_PRES WMO_AGENCY TRACK_TYPE DIST2LAND LANDFALL IFLAG USA_AGENCY USA_ATCF_ID USA_LAT USA_LON USA_RECORD USA_STATUS USA_WIND USA_PRES USA_SSHS USA_R34_NE USA_R34_SE USA_R34_SW USA_R34_NW USA_R50_NE USA_R50_SE USA_R50_SW USA_R50_NW USA_R64_NE USA_R64_SE USA_R64_SW USA_R64_NW USA_POCI USA_ROCI USA_RMW USA_EYE TOKYO_LAT TOKYO_LON TOKYO_GRADE TOKYO_WIND TOKYO_PRES TOKYO_R50_DIR TOKYO_R50_LONG TOKYO_R50_SHORT TOKYO_R30_DIR TOKYO_R30_LONG TOKYO_R30_SHORT TOKYO_LAND CMA_LAT CMA_LON CMA_CAT CMA_WIND CMA_PRES HKO_LAT HKO_LON HKO_CAT HKO_WIND HKO_PRES NEWDELHI_LAT NEWDELHI_LON NEWDELHI_GRADE NEWDELHI_WIND NEWDELHI_PRES NEWDELHI_CI NEWDELHI_DP NEWDELHI_POCI REUNION_LAT REUNION_LON REUNION_TYPE REUNION_WIND REUNION_PRES REUNION_TNUM REUNION_CI REUNION_RMW REUNION_R34_NE REUNION_R34_SE REUNION_R34_SW REUNION_R34_NW REUNION_R50_NE REUNION_R50_SE REUNION_R50_SW REUNION_R50_NW REUNION_R64_NE REUNION_R64_SE REUNION_R64_SW REUNION_R64_NW BOM_LAT BOM_LON BOM_TYPE BOM_WIND BOM_PRES BOM_TNUM BOM_CI BOM_RMW BOM_R34_NE BOM_R34_SE BOM_R34_SW BOM_R34_NW BOM_R50_NE BOM_R50_SE BOM_R50_SW BOM_R50_NW BOM_R64_NE BOM_R64_SE BOM_R64_SW BOM_R64_NW BOM_ROCI BOM_POCI BOM_EYE BOM_POS_METHOD BOM_PRES_METHOD NADI_LAT NADI_LON NADI_CAT NADI_WIND NADI_PRES WELLINGTON_LAT WELLINGTON_LON WELLINGTON_WIND WELLINGTON_PRES DS824_LAT DS824_LON DS824_STAGE DS824_WIND DS824_PRES TD9636_LAT TD9636_LON TD9636_STAGE TD9636_WIND TD9636_PRES TD9635_LAT TD9635_LON TD9635_WIND TD9635_PRES TD9635_ROCI NEUMANN_LAT NEUMANN_LON NEUMANN_CLASS NEUMANN_WIND NEUMANN_PRES MLC_LAT MLC_LON MLC_CLASS MLC_WIND MLC_PRES USA_GUST BOM_GUST BOM_GUST_PER REUNION_GUST REUNION_GUST_PER USA_SEAHGT USA_SEARAD_NE USA_SEARAD_SE USA_SEARAD_SW USA_SEARAD_NW STORM_SPEED STORM_DIR
1958062S14057 1958 18 SI MM NOT_NAMED 1958-03-02 18:00:00 TS -13.7000 57.0000 main 718 717 O________OO___ jtwc_sh SH191958 -13.7000 57.0000 -1 -13.7000 57.0000 TC -13.7000 57.0000 1 2 46
1958062S14057 1958 18 SI MM NOT_NAMED 1958-03-02 21:00:00 TS -13.6447 57.0568 main 728 728 P________PP___ SH191958 -13.6350 57.0750 -1 -13.6350 57.0750 TC -13.6640 57.0202 1 1 40
1958062S14057 1958 18 SI MM NOT_NAMED 1958-03-03 00:00:00 TS -13.6141 57.0741 main 728 722 O________OP___ jtwc_sh SH191958 -13.6000 57.1000 -1 -13.6000 57.1000 TC -13.6424 57.0223 1 0 292
1958062S14057 1958 18 SI MM NOT_NAMED 1958-03-03 03:00:00 TS -13.6299 57.0211 main 722 709 P________PP___ SH191958 -13.6200 57.0375 -1 -13.6200 57.0375 TC -13.6496 56.9883 1 2 243
1958062S14057 1958 18 SI MM NOT_NAMED 1958-03-03 06:00:00 TS -13.7000 56.9000 main 709 685 O________OO___ jtwc_sh SH191958 -13.7000 56.9000 -1 -13.7000 56.9000 TC 25 -13.7000 56.9000 1 4 235
1958062S14057 1958 18 SI MM NOT_NAMED 1958-03-03 09:00:00 TS -13.8288 56.7255 main 685 659 P________PP___ SH191958 -13.8425 56.7150 -1 -13.8425 56.7150 TC 25 -13.8014 56.7464 1 5 233
1958062S14057 1958 18 SI MM NOT_NAMED 1958-03-03 12:00:00 TS -13.9784 56.5151 main 659 636 O________OP___ jtwc_sh SH191958 -14.0000 56.5000 -1 -14.0000 56.5000 TC 25 -13.9351 56.5453 1 5 236
1958062S14057 1958 18 SI MM NOT_NAMED 1958-03-03 15:00:00 TS -14.1021 56.3021 main 636 612 P________PP___ SH191958 -14.1150 56.2925 -1 -14.1150 56.2925 TC 25 -14.0764 56.3215 1 5 241
1958062S14057 1958 18 SI MM NOT_NAMED 1958-03-03 18:00:00 TS -14.2000 56.1000 main 612 600 O________OO___ jtwc_sh SH191958 -14.2000 56.1000 -1 -14.2000 56.1000 TC 25 -14.2000 56.1000 1 4 245
1958062S14057 1958 18 SI MM NOT_NAMED 1958-03-03 21:00:00 TS -14.2607 55.9487 main 589 578 P________PP___ SH191958 -14.2575 55.9500 -1 -14.2575 55.9500 TC 25 -14.2672 55.9460 1 3 250
1958062S14057 1958 18 SI MM NOT_NAMED 1958-03-04 00:00:00 TS -14.3049 55.7982 main 578 557 O________OP___ jtwc_sh SH191958 -14.3000 55.8000 -1 -14.3000 55.8000 TC 25 -14.3146 55.7947 1 3 254
1958062S14057 1958 18 SI MM NOT_NAMED 1958-03-04 03:00:00 TS -14.3515 55.6220 main 555 534 P________PP___ SH191958 -14.3500 55.6225 -1 -14.3500 55.6225 TC 25 -14.3547 55.6210 1 4 256
1958062S14057 1958 18 SI MM NOT_NAMED 1958-03-04 06:00:00 TS -14.4000 55.4000 main 534 502 O________OO___ jtwc_sh SH191958 -14.4000 55.4000 -1 -14.4000 55.4000 TC 25 -14.4000 55.4000 1 5 259
1958062S14057 1958 18 SI MM NOT_NAMED 1958-03-04 09:00:00 TS -14.4427 55.1267 main 502 468 P________PP___ SH191958 -14.4424 55.1299 -1 -14.4424 55.1299 TC 25 -14.4433 55.1202 1 6 260
1958062S14057 1958 18 SI MM NOT_NAMED 1958-03-04 12:00:00 TS -14.4991 54.7964 main 468 424 O________OP___ jtwc_sh SH191958 -14.5000 54.8000 -1 -14.5000 54.8000 TC 25 -14.4973 54.7893 1 7 259
1958062S14057 1958 18 SI MM NOT_NAMED 1958-03-04 15:00:00 TS -14.5775 54.4195 main 424 380 P________PP___ SH191958 -14.5775 54.4224 -1 -14.5775 54.4224 TC 25 -14.5776 54.4138 1 8 255
1958062S14057 1958 18 SI MM NOT_NAMED 1958-03-04 18:00:00 TS -14.7000 54.0000 main 380 334 O________OO___ jtwc_sh SH191958 -14.7000 54.0000 -1 -14.7000 54.0000 TC 25 -14.7000 54.0000 1 9 250
1958062S14057 1958 18 SI MM NOT_NAMED 1958-03-04 21:00:00 TS -14.8764 53.5502 main 334 279 P________PP___ SH191958 -14.8774 53.5649 -1 -14.8774 53.5649 TC 25 -14.8743 53.5208 1 10 246
1958062S14057 1958 18 SI MM NOT_NAMED 1958-03-05 00:00:00 TS -15.0969 53.0711 main 279 225 O________OP___ jtwc_sh SH191958 -15.1000 53.1000 -1 -15.1000 53.1000 TC 25 -15.0908 53.0132 1 11 244
1958062S14057 1958 18 SI MM NOT_NAMED 1958-03-05 03:00:00 TS -15.3407 52.5547 main 225 172 P________PP___ SH191958 -15.3426 52.5701 -1 -15.3426 52.5701 TC 25 -15.3368 52.5239 1 11 242
1958062S14057 1958 18 SI MM NOT_NAMED 1958-03-05 06:00:00 TS -15.6000 52.1000 main 172 146 O________OO___ jtwc_sh SH191958 -15.6000 52.1000 -1 -15.6000 52.1000 TC 25 -15.6000 52.1000 1 9 235
1958062S14057 1958 18 SI MM NOT_NAMED 1958-03-05 09:00:00 TS -15.8345 51.8253 main 146 140 P________PP___ SH191958 -15.8423 51.8048 -1 -15.8423 51.8048 TC 25 -15.8187 51.8662 1 7 223
1958062S14057 1958 18 SI MM NOT_NAMED 1958-03-05 12:00:00 TS -16.0860 51.6306 main 140 135 O________OP___ jtwc_sh SH191958 -16.1000 51.6000 -1 -16.1000 51.6000 TC 25 -16.0581 51.6920 1 6 213
1958062S14057 1958 18 SI MM NOT_NAMED 1958-03-05 15:00:00 TS -16.3508 51.4817 main 144 130 P________PP___ SH191958 -16.3545 51.4742 -1 -16.3545 51.4742 TC 25 -16.3435 51.4969 1 7 214
1958062S14057 1958 18 SI MM NOT_NAMED 1958-03-05 18:00:00 TS -16.7000 51.2000 main 132 91 O________OO___ jtwc_sh SH191958 -16.7000 51.2000 -1 -16.7000 51.2000 TC 25 -16.7000 51.2000 1 13 227
1958062S14057 1958 18 SI MM NOT_NAMED 1958-03-05 21:00:00 TS -17.2180 50.5200 main 86 31 P________PP___ SH191958 -17.2208 50.4959 -1 -17.2208 50.4959 TC 25 -17.2125 50.5683 1 18 232
1958062S14057 1958 18 SI MM NOT_NAMED 1958-03-06 00:00:00 TS -17.7945 49.7479 main 23 0 O________OP___ jtwc_sh SH191958 -17.8000 49.7000 -1 -17.8000 49.7000 TC 25 -17.7836 49.8436 1 18 230
1958062S14057 1958 18 SI MM NOT_NAMED 1958-03-06 03:00:00 TS -18.3474 49.1006 main 0 0 P________PP___ SH191958 -18.3524 49.0652 -1 -18.3524 49.0652 TC 30 -18.3374 49.1713 1 13 225
1958062S14057 1958 18 SI MM NOT_NAMED 1958-03-06 06:00:00 TS -18.7231 48.7846 reunion main 0 0 O____O___OO___ jtwc_sh SH191958 -18.8000 48.7000 -1 -17.8000 49.8000 99 9.90000 -18.8000 48.7000 TC 35 -18.8000 48.7000 2 6 203
1958062S14057 1958 18 SI MM NOT_NAMED 1958-03-06 09:00:00 TS -18.9203 48.8482 main 0 0 P____P___PP___ SH191958 -19.0523 48.7519 -1 -18.0674 49.6802 99 -19.0523 48.7519 TC 35 -19.0825 48.6247 2 4 142
1958062S14057 1958 18 SI MM NOT_NAMED 1958-03-06 12:00:00 TS -19.0455 49.0506 main 0 0 O____P___OP___ jtwc_sh SH191958 -19.2000 49.0000 -1 -18.3354 49.5668 99 -19.2000 49.0000 TC 35 -19.2689 48.7647 2 4 128
1958062S14057 1958 18 SI MM NOT_NAMED 1958-03-06 15:00:00 TS -19.1827 49.1972 main 21 21 P____P___PP___ SH191958 -19.3650 49.1500 -1 -18.6049 49.4664 99 -19.3650 49.1500 TC 35 -19.3958 49.0225 2 4 139
1958062S14057 1958 18 SI MM NOT_NAMED 1958-03-06 18:00:00 TS -19.3441 49.3215 main 33 33 O____P___OO___ jtwc_sh SH191958 -19.5000 49.3000 -1 -18.8765 49.3859 99 -19.5000 49.3000 TC 35 -19.5000 49.3000 2 4 147
1958062S14057 1958 18 SI MM NOT_NAMED 1958-03-06 21:00:00 TS -19.4965 49.4135 main 53 53 P____P___PP___ SH191958 -19.6000 49.4501 -1 -19.1511 49.3321 99 -19.6000 49.4501 TC 35 -19.6351 49.4219 2 4 149
1958062S14057 1958 18 SI MM NOT_NAMED 1958-03-07 00:00:00 TS -19.6466 49.5150 main 66 66 O____P___OP___ jtwc_sh SH191958 -19.7000 49.6000 -1 -19.4294 49.3119 99 -19.7000 49.6000 TC 35 -19.7571 49.5480 2 4 148
1958062S14057 1958 18 SI MM NOT_NAMED 1958-03-07 03:00:00 TS -19.8181 49.6219 main 83 83 P____P___PP___ SH191958 -19.8424 49.7276 -1 -19.7121 49.3322 99 -19.8424 49.7276 TC 35 -19.8756 49.7001 2 4 145
1958062S14057 1958 18 SI MM NOT_NAMED 1958-03-07 06:00:00 TS -20.0000 49.7750 reunion main 104 104 O____O___OO___ jtwc_sh SH191958 -20.0000 49.9000 -1 -20.0000 49.4000 99 9.90000 -20.0000 49.9000 TC 35 -20.0000 49.9000 2 5 135
1958062S14057 1958 18 SI MM NOT_NAMED 1958-03-07 09:00:00 TS -20.1840 50.0109 main 127 127 P____P___PP___ SH191958 -20.1500 50.1700 -1 -20.2929 49.5210 99 -20.1500 50.1700 TC 35 -20.1431 50.1827 2 6 127
1958062S14057 1958 18 SI MM NOT_NAMED 1958-03-07 12:00:00 TS -20.3699 50.3019 main 162 162 O____P___OP___ jtwc_sh SH191958 -20.3000 50.5000 -1 -20.5868 49.6954 99 -20.3000 50.5000 TC 35 -20.2929 50.5123 2 7 123
1958062S14057 1958 18 SI MM NOT_NAMED 1958-03-07 15:00:00 TS -20.5558 50.6245 main 199 199 P____P___PP___ SH191958 -20.4501 50.8575 -1 -20.8770 49.9222 99 -20.4501 50.8575 TC 35 -20.4462 50.8608 2 7 121
1958062S14057 1958 18 SI MM NOT_NAMED 1958-03-07 18:00:00 TS -20.7396 50.9501 main 242 242 O____P___OO___ jtwc_sh SH191958 -20.6000 51.2000 -1 -21.1586 50.2002 99 -20.6000 51.2000 TC 35 -20.6000 51.2000 2 7 123
1958062S14057 1958 18 SI MM NOT_NAMED 1958-03-07 21:00:00 TS -20.9169 51.2242 main 269 269 P____P___PP___ SH191958 -20.7499 51.4576 -1 -21.4266 50.5282 99 -20.7499 51.4576 TC 35 -20.7411 51.4535 2 6 124
1958062S14057 1958 18 SI MM NOT_NAMED 1958-03-08 00:00:00 TS -21.0900 51.5009 main 306 306 O____P___OP___ jtwc_sh SH191958 -20.9000 51.7000 -1 -21.6761 50.9051 99 -20.9000 51.7000 TC 35 -20.8838 51.6985 2 6 122
1958062S14057 1958 18 SI MM NOT_NAMED 1958-03-08 03:00:00 TS -21.2554 51.8060 main 344 312 P____P___PP___ SH191958 -21.0423 51.9627 -1 -21.9023 51.3295 99 -21.0423 51.9627 TC 35 -21.0347 51.9693 2 7 118
1958062S14057 1958 18 SI MM NOT_NAMED 1958-03-08 06:00:00 TS -21.4250 52.1750 reunion main 312 274 O____O___OO___ jtwc_sh SH191958 -21.2000 52.3000 -1 -22.1000 51.8000 99 9.90000 -21.2000 52.3000 TC 35 -21.2000 52.3000 2 9 114
1958062S14057 1958 18 SI MM NOT_NAMED 1958-03-08 09:00:00 TS -21.6007 52.6540 main 264 221 P____P___PP___ SH191958 -21.3926 52.7700 -1 -22.2234 52.3370 99 -21.3926 52.7700 TC 35 -21.3942 52.7390 2 10 110
1958062S14057 1958 18 SI MM NOT_NAMED 1958-03-08 12:00:00 TS -21.7784 53.1927 main 221 178 O____P___OP___ jtwc_sh SH191958 -21.6000 53.3000 -1 -22.3129 52.9314 99 -21.6000 53.3000 TC 35 -21.6006 53.2395 2 11 109
1958062S14057 1958 18 SI MM NOT_NAMED 1958-03-08 15:00:00 TS -21.9504 53.7339 main 182 144 P____P___PP___ SH191958 -21.8073 53.8001 -1 -22.3802 53.5650 99 -21.8073 53.8001 TC 35 -21.8066 53.7703 2 11 108
1958062S14057 1958 18 SI MM NOT_NAMED 1958-03-08 18:00:00 TS -22.1092 54.2800 main 136 113 O____P___OO___ jtwc_sh SH191958 -22.0000 54.3000 -1 -22.4367 54.2200 99 -22.0000 54.3000 TC 35 -22.0000 54.3000 2 11 106
1958062S14057 1958 18 SI MM NOT_NAMED 1958-03-08 21:00:00 TS -22.2453 54.8243 main 113 108 P____P___PP___ SH191958 -22.1574 54.8077 -1 -22.4946 54.8785 99 -22.1574 54.8077 TC 35 -22.1719 54.8035 2 10 105
1958062S14057 1958 18 SI MM NOT_NAMED 1958-03-09 00:00:00 TS -22.3877 55.3645 main 113 111 O____P___OP___ jtwc_sh SH191958 -22.3000 55.3000 -1 -22.5661 55.5229 99 -22.3000 55.3000 TC 35 -22.3253 55.2823 2 10 106
1958062S14057 1958 18 SI MM NOT_NAMED 1958-03-09 03:00:00 TS -22.5377 55.9072 main 126 126 P____P___PP___ SH191958 -22.4477 55.7598 -1 -22.6636 56.1358 99 -22.4477 55.7598 TC 35 -22.4661 55.7450 2 11 108
1958062S14057 1958 18 SI MM NOT_NAMED 1958-03-09 06:00:00 TS -22.7143 56.4857 reunion main 172 172 O____O___OO___ jtwc_sh SH191958 -22.6000 56.2000 -1 -22.8000 56.7000 99 9.90000 -22.6000 56.2000 TC 35 -22.6000 56.2000 2 13 111
1958062S14057 1958 18 SI MM NOT_NAMED 1958-03-09 09:00:00 NR -22.9850 57.2028 main 238 238 _____P________ SH191958 -1 -22.9850 57.2028 99 TC 2 12 115
1958062S14057 1958 18 SI MM NOT_NAMED 1958-03-09 12:00:00 NR -23.2158 57.6485 main 281 281 _____P________ -1 -23.2158 57.6485 99 2 9 123
1958062S14057 1958 18 SI MM NOT_NAMED 1958-03-09 15:00:00 NR -23.4859 58.0459 main 334 334 _____P________ -1 -23.4859 58.0459 99 2 9 130
1958062S14057 1958 18 SI MM NOT_NAMED 1958-03-09 18:00:00 NR -23.7891 58.4032 main 375 375 _____P________ -1 -23.7891 58.4032 99 9 135
1958062S14057 1958 18 SI MM NOT_NAMED 1958-03-09 21:00:00 NR -24.1188 58.7290 main 415 415 _____P________ -1 -24.1188 58.7290 99 9 140
1958062S14057 1958 18 SI MM NOT_NAMED 1958-03-10 00:00:00 NR -24.4683 59.0316 main 466 466 _____P________ -1 -24.4683 59.0316 99 9 143
1958062S14057 1958 18 SI MM NOT_NAMED 1958-03-10 03:00:00 NR -24.8310 59.3191 main 507 507 _____P________ -1 -24.8310 59.3191 99 9 145
1958062S14057 1958 18 SI MM NOT_NAMED 1958-03-10 06:00:00 NR -25.2000 59.6000 reunion main 560 _____O________ -1 -25.2000 59.6000 99 9.90000 9 146

About IBTrACS Database

This database is a web-friendly format of International Best Track Archive for Climate Stewardship (IBTrACS), a global best track data archive curated by NOAA dating back to 1842.

Updated: 2021-10-21